Timmonsville, South Carolina
Current Conditions -  °F | °C
As of 9:53 PM on Tuesday 21 Oct 2014 (Local Time) from KFLO Reporting Station
Overcast Overcast  
Wind Chill: 66°   Ceiling: 8000
Heat Index: 66°   Visibility: 10mi
Dew Point: 50°   Wind: 12mph
Humidity: 56%   Direction: 350°N
Pressure: 29.91"   Gusts: NA
Location:  34.13°N, 79.94°W
Report Text: KFLO 220153Z AUTO 35010KT 10SM FEW065 OVC080 19/10 A2991 RMK AO2 SLP127 T01890100
Loading
Personal Weather Stations






























Interactive Weather Map
Tropical Storm Tracking
New forecast layout! Learn more

10-Day Weather Forecast

Advertisements
Track Severe Weather on mobile